sensor_id;sensor_type;location;lat;lon;timestamp;temperature;humidity
20856;DHT22;63058;49.424;8.420;2023-12-14T00:01:33;10.80;99.90
20856;DHT22;63058;49.424;8.420;2023-12-14T00:03:58;10.80;99.90
20856;DHT22;63058;49.424;8.420;2023-12-14T00:06:24;10.60;99.90
20856;DHT22;63058;49.424;8.420;2023-12-14T00:08:49;10.60;99.90
20856;DHT22;63058;49.424;8.420;2023-12-14T00:11:15;10.70;99.90
20856;DHT22;63058;49.424;8.420;2023-12-14T00:13:40;10.60;99.90
20856;DHT22;63058;49.424;8.420;2023-12-14T00:16:06;10.60;99.90
20856;DHT22;63058;49.424;8.420;2023-12-14T00:18:32;10.60;99.90
20856;DHT22;63058;49.424;8.420;2023-12-14T00:20:58;10.60;99.90
20856;DHT22;63058;49.424;8.420;2023-12-14T00:23:24;10.60;99.90
20856;DHT22;63058;49.424;8.420;2023-12-14T00:25:49;10.50;99.90
20856;DHT22;63058;49.424;8.420;2023-12-14T00:28:15;10.40;99.90
20856;DHT22;63058;49.424;8.420;2023-12-14T00:30:41;10.50;99.90
20856;DHT22;63058;49.424;8.420;2023-12-14T00:33:06;10.40;99.90
20856;DHT22;63058;49.424;8.420;2023-12-14T00:35:32;10.40;99.90
20856;DHT22;63058;49.424;8.420;2023-12-14T00:37:58;10.50;99.90
20856;DHT22;63058;49.424;8.420;2023-12-14T00:40:23;10.30;99.90
20856;DHT22;63058;49.424;8.420;2023-12-14T00:42:50;10.40;99.90
20856;DHT22;63058;49.424;8.420;2023-12-14T00:45:16;10.30;99.90
20856;DHT22;63058;49.424;8.420;2023-12-14T00:47:41;10.30;99.90
20856;DHT22;63058;49.424;8.420;2023-12-14T00:50:07;10.30;99.90
20856;DHT22;63058;49.424;8.420;2023-12-14T00:52:33;10.30;99.90
20856;DHT22;63058;49.424;8.420;2023-12-14T00:54:59;10.30;99.90
20856;DHT22;63058;49.424;8.420;2023-12-14T00:57:24;10.30;99.90
20856;DHT22;63058;49.424;8.420;2023-12-14T00:59:50;10.40;99.90
20856;DHT22;63058;49.424;8.420;2023-12-14T01:02:15;10.40;99.90
20856;DHT22;63058;49.424;8.420;2023-12-14T01:04:41;10.30;99.90
20856;DHT22;63058;49.424;8.420;2023-12-14T01:07:07;10.30;99.90
20856;DHT22;63058;49.424;8.420;2023-12-14T01:09:33;10.40;99.90
20856;DHT22;63058;49.424;8.420;2023-12-14T01:11:59;10.20;99.90
20856;DHT22;63058;49.424;8.420;2023-12-14T01:14:24;10.20;99.90
20856;DHT22;63058;49.424;8.420;2023-12-14T01:16:50;10.30;99.90
20856;DHT22;63058;49.424;8.420;2023-12-14T01:19:16;10.20;99.90
20856;DHT22;63058;49.424;8.420;2023-12-14T01:21:41;10.20;99.90
20856;DHT22;63058;49.424;8.420;2023-12-14T01:24:07;10.10;99.90
20856;DHT22;63058;49.424;8.420;2023-12-14T01:26:32;10.20;99.90
20856;DHT22;63058;49.424;8.420;2023-12-14T01:28:58;10.30;99.90
20856;DHT22;63058;49.424;8.420;2023-12-14T01:31:28;10.30;99.90
20856;DHT22;63058;49.424;8.420;2023-12-14T01:33:54;10.20;99.90
20856;DHT22;63058;49.424;8.420;2023-12-14T01:36:24;10.30;99.90
20856;DHT22;63058;49.424;8.420;2023-12-14T01:38:50;10.20;99.90
20856;DHT22;63058;49.424;8.420;2023-12-14T01:41:16;10.30;99.90
20856;DHT22;63058;49.424;8.420;2023-12-14T01:43:42;10.30;99.90
20856;DHT22;63058;49.424;8.420;2023-12-14T01:46:08;10.30;99.90
20856;DHT22;63058;49.424;8.420;2023-12-14T01:48:33;10.30;99.90
20856;DHT22;63058;49.424;8.420;2023-12-14T01:50:59;10.40;99.90
20856;DHT22;63058;49.424;8.420;2023-12-14T01:53:24;10.20;99.90
20856;DHT22;63058;49.424;8.420;2023-12-14T01:55:50;10.30;99.90
20856;DHT22;63058;49.424;8.420;2023-12-14T01:58:16;10.40;99.90
20856;DHT22;63058;49.424;8.420;2023-12-14T02:03:26;10.30;99.90
20856;DHT22;63058;49.424;8.420;2023-12-14T02:05:52;10.30;99.90
20856;DHT22;63058;49.424;8.420;2023-12-14T02:08:17;10.30;99.90
20856;DHT22;63058;49.424;8.420;2023-12-14T02:10:43;10.30;99.90
20856;DHT22;63058;49.424;8.420;2023-12-14T02:13:09;10.30;99.90
20856;DHT22;63058;49.424;8.420;2023-12-14T02:15:36;10.40;99.90
20856;DHT22;63058;49.424;8.420;2023-12-14T02:18:01;10.30;99.90
20856;DHT22;63058;49.424;8.420;2023-12-14T02:20:28;10.20;99.90
20856;DHT22;63058;49.424;8.420;2023-12-14T02:22:55;10.30;99.90
20856;DHT22;63058;49.424;8.420;2023-12-14T02:25:22;10.30;99.90
20856;DHT22;63058;49.424;8.420;2023-12-14T02:27:48;10.40;99.90
20856;DHT22;63058;49.424;8.420;2023-12-14T02:30:14;10.30;99.90
20856;DHT22;63058;49.424;8.420;2023-12-14T02:32:42;10.30;99.90
20856;DHT22;63058;49.424;8.420;2023-12-14T02:35:08;10.40;99.90
20856;DHT22;63058;49.424;8.420;2023-12-14T02:37:34;10.40;99.90
20856;DHT22;63058;49.424;8.420;2023-12-14T02:40:03;10.40;99.90
20856;DHT22;63058;49.424;8.420;2023-12-14T02:42:29;10.40;99.90
20856;DHT22;63058;49.424;8.420;2023-12-14T02:44:56;10.50;99.90
20856;DHT22;63058;49.424;8.420;2023-12-14T02:47:22;10.50;99.90
20856;DHT22;63058;49.424;8.420;2023-12-14T02:49:48;10.50;99.90
20856;DHT22;63058;49.424;8.420;2023-12-14T02:52:13;10.40;99.90
20856;DHT22;63058;49.424;8.420;2023-12-14T02:54:39;10.50;99.90
20856;DHT22;63058;49.424;8.420;2023-12-14T02:57:06;10.50;99.90
20856;DHT22;63058;49.424;8.420;2023-12-14T02:59:32;10.50;99.90
20856;DHT22;63058;49.424;8.420;2023-12-14T03:01:57;10.60;99.90
20856;DHT22;63058;49.424;8.420;2023-12-14T03:04:23;10.50;99.90
20856;DHT22;63058;49.424;8.420;2023-12-14T03:06:49;10.50;99.90
20856;DHT22;63058;49.424;8.420;2023-12-14T03:09:14;10.60;99.90
20856;DHT22;63058;49.424;8.420;2023-12-14T03:11:40;10.60;99.90
20856;DHT22;63058;49.424;8.420;2023-12-14T03:14:06;10.50;99.90
20856;DHT22;63058;49.424;8.420;2023-12-14T03:16:31;10.60;99.90
20856;DHT22;63058;49.424;8.420;2023-12-14T03:18:57;10.50;99.90
20856;DHT22;63058;49.424;8.420;2023-12-14T03:21:23;10.60;99.90
20856;DHT22;63058;49.424;8.420;2023-12-14T03:23:49;10.50;99.90
20856;DHT22;63058;49.424;8.420;2023-12-14T03:26:15;10.70;99.90
20856;DHT22;63058;49.424;8.420;2023-12-14T03:28:41;10.70;99.90
20856;DHT22;63058;49.424;8.420;2023-12-14T03:31:07;10.60;99.90
20856;DHT22;63058;49.424;8.420;2023-12-14T03:33:32;10.60;99.90
20856;DHT22;63058;49.424;8.420;2023-12-14T03:35:58;10.60;99.90
20856;DHT22;63058;49.424;8.420;2023-12-14T03:38:25;10.60;99.90
20856;DHT22;63058;49.424;8.420;2023-12-14T03:40:50;10.60;99.90
20856;DHT22;63058;49.424;8.420;2023-12-14T03:43:16;10.60;99.90
20856;DHT22;63058;49.424;8.420;2023-12-14T03:45:41;10.70;99.90
20856;DHT22;63058;49.424;8.420;2023-12-14T03:48:07;10.70;99.90
20856;DHT22;63058;49.424;8.420;2023-12-14T03:50:33;10.60;99.90
20856;DHT22;63058;49.424;8.420;2023-12-14T03:52:59;10.80;99.90
20856;DHT22;63058;49.424;8.420;2023-12-14T03:55:24;10.60;99.90
20856;DHT22;63058;49.424;8.420;2023-12-14T03:57:50;10.60;99.90
20856;DHT22;63058;49.424;8.420;2023-12-14T04:00:16;10.70;99.90
20856;DHT22;63058;49.424;8.420;2023-12-14T04:02:42;10.70;99.90
20856;DHT22;63058;49.424;8.420;2023-12-14T04:05:09;10.70;99.90
20856;DHT22;63058;49.424;8.420;2023-12-14T04:07:36;10.80;99.90
20856;DHT22;63058;49.424;8.420;2023-12-14T04:10:05;10.70;99.90
20856;DHT22;63058;49.424;8.420;2023-12-14T04:12:30;10.70;99.90
20856;DHT22;63058;49.424;8.420;2023-12-14T04:14:56;10.70;99.90
20856;DHT22;63058;49.424;8.420;2023-12-14T04:17:22;10.70;99.90
20856;DHT22;63058;49.424;8.420;2023-12-14T04:19:47;10.70;99.90
20856;DHT22;63058;49.424;8.420;2023-12-14T04:22:13;10.80;99.90
20856;DHT22;63058;49.424;8.420;2023-12-14T04:24:38;10.70;99.90
20856;DHT22;63058;49.424;8.420;2023-12-14T04:27:04;10.70;99.90
20856;DHT22;63058;49.424;8.420;2023-12-14T04:29:30;10.70;99.90
20856;DHT22;63058;49.424;8.420;2023-12-14T04:31:55;10.70;99.90
20856;DHT22;63058;49.424;8.420;2023-12-14T04:34:21;10.60;99.90
20856;DHT22;63058;49.424;8.420;2023-12-14T04:36:47;10.60;99.90
20856;DHT22;63058;49.424;8.420;2023-12-14T04:39:13;10.50;99.90
20856;DHT22;63058;49.424;8.420;2023-12-14T04:41:39;10.60;99.90
20856;DHT22;63058;49.424;8.420;2023-12-14T04:44:05;10.70;99.90
20856;DHT22;63058;49.424;8.420;2023-12-14T04:46:30;10.70;99.90
20856;DHT22;63058;49.424;8.420;2023-12-14T04:48:56;10.60;99.90
20856;DHT22;63058;49.424;8.420;2023-12-14T04:51:23;10.40;99.90
20856;DHT22;63058;49.424;8.420;2023-12-14T04:53:49;10.50;99.90
20856;DHT22;63058;49.424;8.420;2023-12-14T04:56:15;10.50;99.90
20856;DHT22;63058;49.424;8.420;2023-12-14T04:58:41;10.50;99.90
20856;DHT22;63058;49.424;8.420;2023-12-14T05:01:07;10.40;99.90
20856;DHT22;63058;49.424;8.420;2023-12-14T05:03:34;10.50;99.90
20856;DHT22;63058;49.424;8.420;2023-12-14T05:06:00;10.40;99.90
20856;DHT22;63058;49.424;8.420;2023-12-14T05:08:26;10.40;99.90
20856;DHT22;63058;49.424;8.420;2023-12-14T05:10:51;10.50;99.90
20856;DHT22;63058;49.424;8.420;2023-12-14T05:13:17;10.50;99.90
20856;DHT22;63058;49.424;8.420;2023-12-14T05:15:43;10.40;99.90
20856;DHT22;63058;49.424;8.420;2023-12-14T05:18:08;10.50;99.90
20856;DHT22;63058;49.424;8.420;2023-12-14T05:20:34;10.40;99.90
20856;DHT22;63058;49.424;8.420;2023-12-14T05:23:01;10.50;99.90
20856;DHT22;63058;49.424;8.420;2023-12-14T05:25:27;10.30;99.90
20856;DHT22;63058;49.424;8.420;2023-12-14T05:27:53;10.40;99.90
20856;DHT22;63058;49.424;8.420;2023-12-14T05:30:19;10.50;99.90
20856;DHT22;63058;49.424;8.420;2023-12-14T05:32:45;10.40;99.90
20856;DHT22;63058;49.424;8.420;2023-12-14T05:35:10;10.40;99.90
20856;DHT22;63058;49.424;8.420;2023-12-14T05:37:38;10.50;99.90
20856;DHT22;63058;49.424;8.420;2023-12-14T05:40:05;10.40;99.90
20856;DHT22;63058;49.424;8.420;2023-12-14T05:42:30;10.40;99.90
20856;DHT22;63058;49.424;8.420;2023-12-14T05:44:56;10.50;99.90
20856;DHT22;63058;49.424;8.420;2023-12-14T05:47:22;10.40;99.90
20856;DHT22;63058;49.424;8.420;2023-12-14T05:49:47;10.30;99.90
20856;DHT22;63058;49.424;8.420;2023-12-14T05:52:14;10.30;99.90
20856;DHT22;63058;49.424;8.420;2023-12-14T05:54:40;10.50;99.90
20856;DHT22;63058;49.424;8.420;2023-12-14T05:57:06;10.40;99.90
20856;DHT22;63058;49.424;8.420;2023-12-14T05:59:32;10.40;99.90
20856;DHT22;63058;49.424;8.420;2023-12-14T06:01:58;10.50;99.90
20856;DHT22;63058;49.424;8.420;2023-12-14T06:04:25;10.50;99.90
20856;DHT22;63058;49.424;8.420;2023-12-14T06:06:51;10.40;99.90
20856;DHT22;63058;49.424;8.420;2023-12-14T06:09:17;10.40;99.90
20856;DHT22;63058;49.424;8.420;2023-12-14T06:11:44;10.40;99.90
20856;DHT22;63058;49.424;8.420;2023-12-14T06:14:10;10.40;99.90
20856;DHT22;63058;49.424;8.420;2023-12-14T06:16:36;10.40;99.90
20856;DHT22;63058;49.424;8.420;2023-12-14T06:19:01;10.50;99.90
20856;DHT22;63058;49.424;8.420;2023-12-14T06:21:27;10.50;99.90
20856;DHT22;63058;49.424;8.420;2023-12-14T06:23:55;10.40;99.90
20856;DHT22;63058;49.424;8.420;2023-12-14T06:26:20;10.50;99.90
20856;DHT22;63058;49.424;8.420;2023-12-14T06:28:47;10.40;99.90
20856;DHT22;63058;49.424;8.420;2023-12-14T06:31:16;10.40;99.90
20856;DHT22;63058;49.424;8.420;2023-12-14T06:33:43;10.50;99.90
20856;DHT22;63058;49.424;8.420;2023-12-14T06:36:08;10.50;99.90
20856;DHT22;63058;49.424;8.420;2023-12-14T06:38:34;10.40;99.90
20856;DHT22;63058;49.424;8.420;2023-12-14T06:41:00;10.30;99.90
20856;DHT22;63058;49.424;8.420;2023-12-14T06:43:27;10.30;99.90
20856;DHT22;63058;49.424;8.420;2023-12-14T06:45:53;10.50;99.90
20856;DHT22;63058;49.424;8.420;2023-12-14T06:48:19;10.30;99.90
20856;DHT22;63058;49.424;8.420;2023-12-14T06:50:45;10.30;99.90
20856;DHT22;63058;49.424;8.420;2023-12-14T06:53:10;10.30;99.90
20856;DHT22;63058;49.424;8.420;2023-12-14T06:55:36;10.30;99.90
20856;DHT22;63058;49.424;8.420;2023-12-14T06:58:02;10.30;99.90
20856;DHT22;63058;49.424;8.420;2023-12-14T07:00:27;10.30;99.90
20856;DHT22;63058;49.424;8.420;2023-12-14T07:02:55;10.40;99.90
20856;DHT22;63058;49.424;8.420;2023-12-14T07:05:20;10.30;99.90
20856;DHT22;63058;49.424;8.420;2023-12-14T07:07:46;10.40;99.90
20856;DHT22;63058;49.424;8.420;2023-12-14T07:10:12;10.50;99.90
20856;DHT22;63058;49.424;8.420;2023-12-14T07:12:37;10.40;99.90
20856;DHT22;63058;49.424;8.420;2023-12-14T07:15:03;10.40;99.90
20856;DHT22;63058;49.424;8.420;2023-12-14T07:17:29;10.40;99.90
20856;DHT22;63058;49.424;8.420;2023-12-14T07:19:54;10.40;99.90
20856;DHT22;63058;49.424;8.420;2023-12-14T07:22:20;10.40;99.90
20856;DHT22;63058;49.424;8.420;2023-12-14T07:24:45;10.40;99.90
20856;DHT22;63058;49.424;8.420;2023-12-14T07:27:11;10.50;99.90
20856;DHT22;63058;49.424;8.420;2023-12-14T07:29:36;10.40;99.90
20856;DHT22;63058;49.424;8.420;2023-12-14T07:32:02;10.40;99.90
20856;DHT22;63058;49.424;8.420;2023-12-14T07:34:28;10.40;99.90
20856;DHT22;63058;49.424;8.420;2023-12-14T07:36:54;10.40;99.90
20856;DHT22;63058;49.424;8.420;2023-12-14T07:39:20;10.40;99.90
20856;DHT22;63058;49.424;8.420;2023-12-14T07:41:45;10.40;99.90
20856;DHT22;63058;49.424;8.420;2023-12-14T07:44:11;10.50;99.90
20856;DHT22;63058;49.424;8.420;2023-12-14T07:46:38;10.50;99.90
20856;DHT22;63058;49.424;8.420;2023-12-14T07:49:07;10.60;99.90
20856;DHT22;63058;49.424;8.420;2023-12-14T07:51:32;10.50;99.90
20856;DHT22;63058;49.424;8.420;2023-12-14T07:53:58;10.50;99.90
20856;DHT22;63058;49.424;8.420;2023-12-14T07:56:24;10.70;99.90
20856;DHT22;63058;49.424;8.420;2023-12-14T07:58:52;10.60;99.90
20856;DHT22;63058;49.424;8.420;2023-12-14T08:01:18;10.70;99.90
20856;DHT22;63058;49.424;8.420;2023-12-14T08:03:44;10.60;99.90
20856;DHT22;63058;49.424;8.420;2023-12-14T08:06:09;10.70;99.90
20856;DHT22;63058;49.424;8.420;2023-12-14T08:08:35;10.70;99.90
20856;DHT22;63058;49.424;8.420;2023-12-14T08:11:03;10.80;99.90
20856;DHT22;63058;49.424;8.420;2023-12-14T08:13:29;10.70;99.90
20856;DHT22;63058;49.424;8.420;2023-12-14T08:15:55;10.80;99.90
20856;DHT22;63058;49.424;8.420;2023-12-14T08:18:20;10.80;99.90
20856;DHT22;63058;49.424;8.420;2023-12-14T08:20:46;10.90;99.90
20856;DHT22;63058;49.424;8.420;2023-12-14T08:23:12;10.80;99.90
20856;DHT22;63058;49.424;8.420;2023-12-14T08:25:37;10.80;99.90
20856;DHT22;63058;49.424;8.420;2023-12-14T08:28:03;10.90;99.90
20856;DHT22;63058;49.424;8.420;2023-12-14T08:30:28;10.90;99.90
20856;DHT22;63058;49.424;8.420;2023-12-14T08:32:54;11.00;99.90
20856;DHT22;63058;49.424;8.420;2023-12-14T08:35:20;11.00;99.90
20856;DHT22;63058;49.424;8.420;2023-12-14T08:37:45;11.00;99.90
20856;DHT22;63058;49.424;8.420;2023-12-14T08:40:11;11.00;99.90
20856;DHT22;63058;49.424;8.420;2023-12-14T08:42:37;11.10;99.90
20856;DHT22;63058;49.424;8.420;2023-12-14T08:45:03;11.10;99.90
20856;DHT22;63058;49.424;8.420;2023-12-14T08:47:28;11.10;99.90
20856;DHT22;63058;49.424;8.420;2023-12-14T08:49:54;11.10;99.90
20856;DHT22;63058;49.424;8.420;2023-12-14T08:52:19;11.10;99.90
20856;DHT22;63058;49.424;8.420;2023-12-14T08:54:45;11.10;99.90
20856;DHT22;63058;49.424;8.420;2023-12-14T08:57:11;11.20;99.90
20856;DHT22;63058;49.424;8.420;2023-12-14T08:59:37;11.20;99.90
20856;DHT22;63058;49.424;8.420;2023-12-14T09:02:03;11.20;99.90
20856;DHT22;63058;49.424;8.420;2023-12-14T09:04:28;11.20;99.90
20856;DHT22;63058;49.424;8.420;2023-12-14T09:06:54;11.20;99.90
20856;DHT22;63058;49.424;8.420;2023-12-14T09:09:19;11.20;99.90
20856;DHT22;63058;49.424;8.420;2023-12-14T09:11:45;11.20;99.90
20856;DHT22;63058;49.424;8.420;2023-12-14T09:14:10;11.20;99.90
20856;DHT22;63058;49.424;8.420;2023-12-14T09:16:36;11.20;99.90
20856;DHT22;63058;49.424;8.420;2023-12-14T09:19:02;11.20;99.90
20856;DHT22;63058;49.424;8.420;2023-12-14T09:21:27;11.20;99.90
20856;DHT22;63058;49.424;8.420;2023-12-14T09:23:53;11.30;99.90
20856;DHT22;63058;49.424;8.420;2023-12-14T09:26:19;11.30;99.90
20856;DHT22;63058;49.424;8.420;2023-12-14T09:28:44;11.30;99.90
20856;DHT22;63058;49.424;8.420;2023-12-14T09:31:10;11.30;99.90
20856;DHT22;63058;49.424;8.420;2023-12-14T09:33:36;11.30;99.90
20856;DHT22;63058;49.424;8.420;2023-12-14T09:36:02;11.40;99.90
20856;DHT22;63058;49.424;8.420;2023-12-14T09:38:28;11.40;99.90
20856;DHT22;63058;49.424;8.420;2023-12-14T09:40:53;11.40;99.90
20856;DHT22;63058;49.424;8.420;2023-12-14T09:43:19;11.40;99.90
20856;DHT22;63058;49.424;8.420;2023-12-14T09:45:47;11.50;99.90
20856;DHT22;63058;49.424;8.420;2023-12-14T09:48:13;11.50;99.90
20856;DHT22;63058;49.424;8.420;2023-12-14T09:50:40;11.60;99.90
20856;DHT22;63058;49.424;8.420;2023-12-14T09:53:06;11.60;99.90
20856;DHT22;63058;49.424;8.420;2023-12-14T09:55:33;11.60;99.90
20856;DHT22;63058;49.424;8.420;2023-12-14T09:57:59;11.70;99.90
20856;DHT22;63058;49.424;8.420;2023-12-14T10:03:22;11.70;99.90
20856;DHT22;63058;49.424;8.420;2023-12-14T10:05:49;11.70;99.90
20856;DHT22;63058;49.424;8.420;2023-12-14T10:08:16;11.80;99.90
20856;DHT22;63058;49.424;8.420;2023-12-14T10:10:42;11.80;99.90
20856;DHT22;63058;49.424;8.420;2023-12-14T10:13:09;11.80;99.90
20856;DHT22;63058;49.424;8.420;2023-12-14T10:15:46;11.80;99.90
20856;DHT22;63058;49.424;8.420;2023-12-14T10:18:22;11.80;99.90
20856;DHT22;63058;49.424;8.420;2023-12-14T10:20:53;11.90;99.90
20856;DHT22;63058;49.424;8.420;2023-12-14T10:23:20;11.90;99.90
20856;DHT22;63058;49.424;8.420;2023-12-14T10:25:52;11.90;99.90
20856;DHT22;63058;49.424;8.420;2023-12-14T10:28:18;12.00;99.90
20856;DHT22;63058;49.424;8.420;2023-12-14T10:30:45;12.00;99.90
20856;DHT22;63058;49.424;8.420;2023-12-14T10:33:10;12.10;99.90
20856;DHT22;63058;49.424;8.420;2023-12-14T10:35:38;12.10;99.90
20856;DHT22;63058;49.424;8.420;2023-12-14T10:38:12;12.20;99.90
20856;DHT22;63058;49.424;8.420;2023-12-14T10:40:40;12.40;99.90
20856;DHT22;63058;49.424;8.420;2023-12-14T10:43:08;12.30;99.90
20856;DHT22;63058;49.424;8.420;2023-12-14T10:45:38;12.30;99.90
20856;DHT22;63058;49.424;8.420;2023-12-14T10:48:04;12.30;99.90
20856;DHT22;63058;49.424;8.420;2023-12-14T10:50:31;12.40;99.90
20856;DHT22;63058;49.424;8.420;2023-12-14T10:52:59;12.40;99.90
20856;DHT22;63058;49.424;8.420;2023-12-14T10:55:31;12.30;99.90
20856;DHT22;63058;49.424;8.420;2023-12-14T10:57:58;12.30;99.90
20856;DHT22;63058;49.424;8.420;2023-12-14T11:00:24;12.30;99.90
20856;DHT22;63058;49.424;8.420;2023-12-14T11:02:51;12.20;99.90
20856;DHT22;63058;49.424;8.420;2023-12-14T11:05:18;12.20;99.90
20856;DHT22;63058;49.424;8.420;2023-12-14T11:07:59;12.20;99.90
20856;DHT22;63058;49.424;8.420;2023-12-14T11:10:40;12.20;99.90
20856;DHT22;63058;49.424;8.420;2023-12-14T11:13:11;12.20;99.90
20856;DHT22;63058;49.424;8.420;2023-12-14T11:15:48;12.20;99.90
20856;DHT22;63058;49.424;8.420;2023-12-14T11:18:24;12.20;99.90
20856;DHT22;63058;49.424;8.420;2023-12-14T11:20:54;12.20;99.90
20856;DHT22;63058;49.424;8.420;2023-12-14T11:23:36;12.20;99.90
20856;DHT22;63058;49.424;8.420;2023-12-14T11:26:06;12.20;99.90
20856;DHT22;63058;49.424;8.420;2023-12-14T11:28:36;12.20;99.90
20856;DHT22;63058;49.424;8.420;2023-12-14T11:31:02;12.20;99.90
20856;DHT22;63058;49.424;8.420;2023-12-14T11:33:35;12.20;99.90
20856;DHT22;63058;49.424;8.420;2023-12-14T11:36:02;12.20;99.90
20856;DHT22;63058;49.424;8.420;2023-12-14T11:38:29;12.20;99.90
20856;DHT22;63058;49.424;8.420;2023-12-14T11:40:55;12.20;99.90
20856;DHT22;63058;49.424;8.420;2023-12-14T11:43:21;12.20;99.90
20856;DHT22;63058;49.424;8.420;2023-12-14T11:45:49;12.30;99.90
20856;DHT22;63058;49.424;8.420;2023-12-14T11:48:15;12.20;99.90
20856;DHT22;63058;49.424;8.420;2023-12-14T11:50:42;12.20;99.90
20856;DHT22;63058;49.424;8.420;2023-12-14T11:53:10;12.20;99.90
20856;DHT22;63058;49.424;8.420;2023-12-14T11:55:37;12.20;99.90
20856;DHT22;63058;49.424;8.420;2023-12-14T11:58:04;12.20;99.90
20856;DHT22;63058;49.424;8.420;2023-12-14T12:00:30;12.20;99.90
20856;DHT22;63058;49.424;8.420;2023-12-14T12:03:16;12.30;99.90
20856;DHT22;63058;49.424;8.420;2023-12-14T12:05:49;12.30;99.90
20856;DHT22;63058;49.424;8.420;2023-12-14T12:08:16;12.30;99.90
20856;DHT22;63058;49.424;8.420;2023-12-14T12:10:45;12.30;99.90
20856;DHT22;63058;49.424;8.420;2023-12-14T12:13:20;12.30;99.90
20856;DHT22;63058;49.424;8.420;2023-12-14T12:15:47;12.30;99.90
20856;DHT22;63058;49.424;8.420;2023-12-14T12:18:15;12.30;99.90
20856;DHT22;63058;49.424;8.420;2023-12-14T12:20:40;12.30;99.90
20856;DHT22;63058;49.424;8.420;2023-12-14T12:23:06;12.30;99.90
20856;DHT22;63058;49.424;8.420;2023-12-14T12:25:33;12.30;99.90
20856;DHT22;63058;49.424;8.420;2023-12-14T12:28:00;12.30;99.90
20856;DHT22;63058;49.424;8.420;2023-12-14T12:30:26;12.30;99.90
20856;DHT22;63058;49.424;8.420;2023-12-14T12:32:52;12.20;99.90
20856;DHT22;63058;49.424;8.420;2023-12-14T12:35:22;12.20;99.90
20856;DHT22;63058;49.424;8.420;2023-12-14T12:37:48;12.30;99.90
20856;DHT22;63058;49.424;8.420;2023-12-14T12:40:22;12.30;99.90
20856;DHT22;63058;49.424;8.420;2023-12-14T12:42:48;12.30;99.90
20856;DHT22;63058;49.424;8.420;2023-12-14T12:45:17;12.30;99.90
20856;DHT22;63058;49.424;8.420;2023-12-14T12:47:43;12.30;99.90
20856;DHT22;63058;49.424;8.420;2023-12-14T12:50:09;12.30;99.90
20856;DHT22;63058;49.424;8.420;2023-12-14T12:52:35;12.40;99.90
20856;DHT22;63058;49.424;8.420;2023-12-14T12:55:01;12.40;99.90
20856;DHT22;63058;49.424;8.420;2023-12-14T12:57:27;12.50;99.90
20856;DHT22;63058;49.424;8.420;2023-12-14T12:59:52;12.50;99.90
20856;DHT22;63058;49.424;8.420;2023-12-14T13:02:18;12.60;99.90
20856;DHT22;63058;49.424;8.420;2023-12-14T13:04:43;12.60;99.90
20856;DHT22;63058;49.424;8.420;2023-12-14T13:07:09;12.80;99.90
20856;DHT22;63058;49.424;8.420;2023-12-14T13:09:35;13.00;99.90
20856;DHT22;63058;49.424;8.420;2023-12-14T13:12:00;13.20;99.90
20856;DHT22;63058;49.424;8.420;2023-12-14T13:14:26;13.40;99.90
20856;DHT22;63058;49.424;8.420;2023-12-14T13:16:53;13.60;99.90
20856;DHT22;63058;49.424;8.420;2023-12-14T13:19:19;13.70;99.90
20856;DHT22;63058;49.424;8.420;2023-12-14T13:21:44;13.80;99.90
20856;DHT22;63058;49.424;8.420;2023-12-14T13:24:10;13.80;99.90
20856;DHT22;63058;49.424;8.420;2023-12-14T13:26:35;13.70;99.90
20856;DHT22;63058;49.424;8.420;2023-12-14T13:29:01;13.70;99.90
20856;DHT22;63058;49.424;8.420;2023-12-14T13:31:27;13.60;99.90
20856;DHT22;63058;49.424;8.420;2023-12-14T13:33:53;13.60;99.90
20856;DHT22;63058;49.424;8.420;2023-12-14T13:36:19;13.60;99.90
20856;DHT22;63058;49.424;8.420;2023-12-14T13:38:44;13.60;99.90
20856;DHT22;63058;49.424;8.420;2023-12-14T13:41:11;13.60;99.90
20856;DHT22;63058;49.424;8.420;2023-12-14T13:43:36;13.60;99.90
20856;DHT22;63058;49.424;8.420;2023-12-14T13:46:02;13.60;99.90
20856;DHT22;63058;49.424;8.420;2023-12-14T13:48:28;13.50;99.90
20856;DHT22;63058;49.424;8.420;2023-12-14T13:50:54;13.40;99.90
20856;DHT22;63058;49.424;8.420;2023-12-14T13:53:21;13.40;99.90
20856;DHT22;63058;49.424;8.420;2023-12-14T13:55:46;13.40;99.90
20856;DHT22;63058;49.424;8.420;2023-12-14T13:58:14;13.40;99.90
20856;DHT22;63058;49.424;8.420;2023-12-14T14:00:39;13.30;99.90
20856;DHT22;63058;49.424;8.420;2023-12-14T14:03:05;13.30;99.90
20856;DHT22;63058;49.424;8.420;2023-12-14T14:05:31;13.30;99.90
20856;DHT22;63058;49.424;8.420;2023-12-14T14:07:57;13.20;99.90
20856;DHT22;63058;49.424;8.420;2023-12-14T14:10:23;13.20;99.90
20856;DHT22;63058;49.424;8.420;2023-12-14T14:12:49;13.10;99.90
20856;DHT22;63058;49.424;8.420;2023-12-14T14:15:15;13.00;99.90
20856;DHT22;63058;49.424;8.420;2023-12-14T14:17:41;12.90;99.90
20856;DHT22;63058;49.424;8.420;2023-12-14T14:20:07;12.90;99.90
20856;DHT22;63058;49.424;8.420;2023-12-14T14:22:36;12.80;99.90
20856;DHT22;63058;49.424;8.420;2023-12-14T14:25:03;12.70;99.90
20856;DHT22;63058;49.424;8.420;2023-12-14T14:27:28;12.60;99.90
20856;DHT22;63058;49.424;8.420;2023-12-14T14:29:54;12.60;99.90
20856;DHT22;63058;49.424;8.420;2023-12-14T14:32:21;12.60;99.90
20856;DHT22;63058;49.424;8.420;2023-12-14T14:34:47;12.50;99.90
20856;DHT22;63058;49.424;8.420;2023-12-14T14:37:13;12.50;99.90
20856;DHT22;63058;49.424;8.420;2023-12-14T14:39:38;12.40;99.90
20856;DHT22;63058;49.424;8.420;2023-12-14T14:42:08;12.40;99.90
20856;DHT22;63058;49.424;8.420;2023-12-14T14:44:34;12.40;99.90
20856;DHT22;63058;49.424;8.420;2023-12-14T14:46:59;12.30;99.90
20856;DHT22;63058;49.424;8.420;2023-12-14T14:49:25;12.30;99.90
20856;DHT22;63058;49.424;8.420;2023-12-14T14:51:51;12.30;99.90
20856;DHT22;63058;49.424;8.420;2023-12-14T14:54:16;12.20;99.90
20856;DHT22;63058;49.424;8.420;2023-12-14T14:56:42;12.20;99.90
20856;DHT22;63058;49.424;8.420;2023-12-14T14:59:09;12.10;99.90
20856;DHT22;63058;49.424;8.420;2023-12-14T15:01:37;12.10;99.90
20856;DHT22;63058;49.424;8.420;2023-12-14T15:04:03;12.00;99.90
20856;DHT22;63058;49.424;8.420;2023-12-14T15:06:29;12.00;99.90
20856;DHT22;63058;49.424;8.420;2023-12-14T15:08:54;11.90;99.90
20856;DHT22;63058;49.424;8.420;2023-12-14T15:11:20;11.90;99.90
20856;DHT22;63058;49.424;8.420;2023-12-14T15:13:46;11.90;99.90
20856;DHT22;63058;49.424;8.420;2023-12-14T15:16:11;11.80;99.90
20856;DHT22;63058;49.424;8.420;2023-12-14T15:18:38;11.90;99.90
20856;DHT22;63058;49.424;8.420;2023-12-14T15:21:12;11.80;99.90
20856;DHT22;63058;49.424;8.420;2023-12-14T15:23:38;11.70;99.90
20856;DHT22;63058;49.424;8.420;2023-12-14T15:26:05;11.70;99.90
20856;DHT22;63058;49.424;8.420;2023-12-14T15:28:31;11.70;99.90
20856;DHT22;63058;49.424;8.420;2023-12-14T15:30:56;11.70;99.90